sensor_id;sensor_type;location;lat;lon;timestamp;pressure;altitude;pressure_sealevel;temperature
47484;BMP280;54076;50.322;18.650;2023-06-14T00:02:20;142275.27;;;7.38
47484;BMP280;54076;50.322;18.650;2023-06-14T00:07:35;142368.28;;;7.41
47484;BMP280;54076;50.322;18.650;2023-06-14T00:12:38;142610.52;;;7.48
47484;BMP280;54076;50.322;18.650;2023-06-14T00:17:39;142531.16;;;7.46
47484;BMP280;54076;50.322;18.650;2023-06-14T00:22:41;142763.45;;;7.53
47484;BMP280;54076;50.322;18.650;2023-06-14T00:27:42;142319.58;;;7.38
47484;BMP280;54076;50.322;18.650;2023-06-14T00:32:44;142230.41;;;7.35
47484;BMP280;54076;50.322;18.650;2023-06-14T00:37:45;141570.45;;;7.13
47484;BMP280;54076;50.322;18.650;2023-06-14T00:42:47;141729.05;;;7.18
47484;BMP280;54076;50.322;18.650;2023-06-14T00:47:49;141453.78;;;7.07
47484;BMP280;54076;50.322;18.650;2023-06-14T00:52:53;141072.53;;;6.93
47484;BMP280;54076;50.322;18.650;2023-06-14T00:57:55;140723.94;;;6.83
47484;BMP280;54076;50.322;18.650;2023-06-14T01:02:56;139873.66;;;6.58
47484;BMP280;54076;50.322;18.650;2023-06-14T01:13:25;139967.94;;;6.57
47484;BMP280;54076;50.322;18.650;2023-06-14T01:18:29;138777.88;;;6.20
47484;BMP280;54076;50.322;18.650;2023-06-14T01:23:30;138388.34;;;6.06
47484;BMP280;54076;50.322;18.650;2023-06-14T01:28:34;138176.94;;;5.99
47484;BMP280;54076;50.322;18.650;2023-06-14T01:33:36;138598.27;;;6.08
47484;BMP280;54076;50.322;18.650;2023-06-14T01:38:38;137628.30;;;5.77
47484;BMP280;54076;50.322;18.650;2023-06-14T01:43:41;136800.98;;;5.50
47484;BMP280;54076;50.322;18.650;2023-06-14T01:48:43;137458.92;;;5.62
47484;BMP280;54076;50.322;18.650;2023-06-14T01:53:44;137356.97;;;5.56
47484;BMP280;54076;50.322;18.650;2023-06-14T01:58:46;137561.31;;;5.59
47484;BMP280;54076;50.322;18.650;2023-06-14T02:03:47;136817.41;;;5.40
47484;BMP280;54076;50.322;18.650;2023-06-14T02:08:49;136100.33;;;5.20
47484;BMP280;54076;50.322;18.650;2023-06-14T02:13:50;135688.61;;;5.09
47484;BMP280;54076;50.322;18.650;2023-06-14T02:18:51;135979.78;;;5.15
47484;BMP280;54076;50.322;18.650;2023-06-14T02:23:53;135854.75;;;5.10
47484;BMP280;54076;50.322;18.650;2023-06-14T02:28:54;136166.66;;;5.14
47484;BMP280;54076;50.322;18.650;2023-06-14T02:33:55;136431.83;;;5.22
47484;BMP280;54076;50.322;18.650;2023-06-14T02:38:57;135835.05;;;5.05
47484;BMP280;54076;50.322;18.650;2023-06-14T02:44:00;135383.03;;;4.90
47484;BMP280;54076;50.322;18.650;2023-06-14T02:49:01;136524.39;;;5.20
47484;BMP280;54076;50.322;18.650;2023-06-14T02:54:03;136821.31;;;5.27
47484;BMP280;54076;50.322;18.650;2023-06-14T02:59:04;136362.67;;;5.13
47484;BMP280;54076;50.322;18.650;2023-06-14T03:04:05;137055.91;;;5.32
47484;BMP280;54076;50.322;18.650;2023-06-14T03:09:06;137358.55;;;5.39
47484;BMP280;54076;50.322;18.650;2023-06-14T03:14:07;137265.45;;;5.34
47484;BMP280;54076;50.322;18.650;2023-06-14T03:19:09;137280.94;;;5.33
47484;BMP280;54076;50.322;18.650;2023-06-14T03:24:10;138169.67;;;5.56
47484;BMP280;54076;50.322;18.650;2023-06-14T03:29:11;139424.84;;;5.88
47484;BMP280;54076;50.322;18.650;2023-06-14T03:34:12;140112.34;;;6.04
47484;BMP280;54076;50.322;18.650;2023-06-14T03:39:13;141479.88;;;6.41
47484;BMP280;54076;50.322;18.650;2023-06-14T03:44:17;142302.80;;;6.64
47484;BMP280;54076;50.322;18.650;2023-06-14T03:49:19;142618.78;;;6.75
47484;BMP280;54076;50.322;18.650;2023-06-14T03:54:20;142985.39;;;6.86
47484;BMP280;54076;50.322;18.650;2023-06-14T03:59:23;142867.09;;;6.80
47484;BMP280;54076;50.322;18.650;2023-06-14T04:04:24;143229.36;;;6.90
47484;BMP280;54076;50.322;18.650;2023-06-14T04:09:29;143452.30;;;6.96
47484;BMP280;54076;50.322;18.650;2023-06-14T04:14:32;143288.03;;;6.92
47484;BMP280;54076;50.322;18.650;2023-06-14T04:19:33;143828.66;;;7.04
47484;BMP280;54076;50.322;18.650;2023-06-14T04:24:34;144332.05;;;7.18
47484;BMP280;54076;50.322;18.650;2023-06-14T04:29:36;145208.84;;;7.42
47484;BMP280;54076;50.322;18.650;2023-06-14T04:34:37;144684.47;;;7.22
47484;BMP280;54076;50.322;18.650;2023-06-14T04:39:38;144301.20;;;7.28
47484;BMP280;54076;50.322;18.650;2023-06-14T04:44:42;145031.95;;;7.50
47484;BMP280;54076;50.322;18.650;2023-06-14T04:49:44;145256.75;;;7.51
47484;BMP280;54076;50.322;18.650;2023-06-14T04:54:45;145318.53;;;7.58
47484;BMP280;54076;50.322;18.650;2023-06-14T04:59:46;145141.48;;;7.51
47484;BMP280;54076;50.322;18.650;2023-06-14T05:04:48;146482.44;;;7.90
47484;BMP280;54076;50.322;18.650;2023-06-14T05:09:49;146685.97;;;7.84
47484;BMP280;54076;50.322;18.650;2023-06-14T05:14:50;147842.03;;;8.09
47484;BMP280;54076;50.322;18.650;2023-06-14T05:19:51;148784.84;;;8.54
47484;BMP280;54076;50.322;18.650;2023-06-14T05:24:52;148083.16;;;8.28
47484;BMP280;54076;50.322;18.650;2023-06-14T05:29:53;148917.13;;;8.54
47484;BMP280;54076;50.322;18.650;2023-06-14T05:34:59;149402.75;;;8.98
47484;BMP280;54076;50.322;18.650;2023-06-14T05:40:00;148674.28;;;8.71
47484;BMP280;54076;50.322;18.650;2023-06-14T05:45:01;149711.20;;;9.10
47484;BMP280;54076;50.322;18.650;2023-06-14T05:50:03;149569.63;;;9.06
47484;BMP280;54076;50.322;18.650;2023-06-14T05:55:04;149569.58;;;9.13
47484;BMP280;54076;50.322;18.650;2023-06-14T06:00:08;149313.27;;;9.03
47484;BMP280;54076;50.322;18.650;2023-06-14T06:05:13;150037.53;;;9.23
47484;BMP280;54076;50.322;18.650;2023-06-14T06:10:14;150950.53;;;9.39
47484;BMP280;54076;50.322;18.650;2023-06-14T06:15:15;150463.72;;;9.46
47484;BMP280;54076;50.322;18.650;2023-06-14T06:20:17;150453.75;;;9.46
47484;BMP280;54076;50.322;18.650;2023-06-14T06:25:18;151162.83;;;9.52
47484;BMP280;54076;50.322;18.650;2023-06-14T06:30:20;151126.16;;;9.66
47484;BMP280;54076;50.322;18.650;2023-06-14T06:35:21;151643.88;;;9.83
47484;BMP280;54076;50.322;18.650;2023-06-14T06:40:22;152084.25;;;9.96
47484;BMP280;54076;50.322;18.650;2023-06-14T06:45:23;152309.91;;;10.01
47484;BMP280;54076;50.322;18.650;2023-06-14T06:50:25;151621.31;;;9.86
47484;BMP280;54076;50.322;18.650;2023-06-14T06:55:26;150984.08;;;9.64
47484;BMP280;54076;50.322;18.650;2023-06-14T07:00:27;152071.77;;;10.03
47484;BMP280;54076;50.322;18.650;2023-06-14T07:05:29;153157.59;;;10.32
47484;BMP280;54076;50.322;18.650;2023-06-14T07:10:30;152865.78;;;10.18
47484;BMP280;54076;50.322;18.650;2023-06-14T07:15:31;154337.58;;;10.86
47484;BMP280;54076;50.322;18.650;2023-06-14T07:20:32;154856.47;;;11.14
47484;BMP280;54076;50.322;18.650;2023-06-14T07:25:33;154849.22;;;11.15
47484;BMP280;54076;50.322;18.650;2023-06-14T07:30:35;154589.25;;;11.01
47484;BMP280;54076;50.322;18.650;2023-06-14T07:35:36;155579.59;;;11.54
47484;BMP280;54076;50.322;18.650;2023-06-14T07:40:37;156914.84;;;12.25
47484;BMP280;54076;50.322;18.650;2023-06-14T07:45:38;156941.13;;;12.33
47484;BMP280;54076;50.322;18.650;2023-06-14T07:50:39;157385.16;;;12.56
47484;BMP280;54076;50.322;18.650;2023-06-14T07:55:41;157115.45;;;12.51
47484;BMP280;54076;50.322;18.650;2023-06-14T08:00:43;155352.03;;;12.05
47484;BMP280;54076;50.322;18.650;2023-06-14T08:05:45;154603.58;;;11.73
47484;BMP280;54076;50.322;18.650;2023-06-14T08:10:46;153809.33;;;11.37
47484;BMP280;54076;50.322;18.650;2023-06-14T08:15:47;153821.28;;;11.39
47484;BMP280;54076;50.322;18.650;2023-06-14T08:20:48;153511.00;;;11.05
47484;BMP280;54076;50.322;18.650;2023-06-14T08:25:49;154075.50;;;11.34
47484;BMP280;54076;50.322;18.650;2023-06-14T08:30:50;154112.09;;;11.34
47484;BMP280;54076;50.322;18.650;2023-06-14T08:35:51;153859.78;;;11.11
47484;BMP280;54076;50.322;18.650;2023-06-14T08:40:57;154320.16;;;11.25
47484;BMP280;54076;50.322;18.650;2023-06-14T08:46:00;154843.83;;;11.60
47484;BMP280;54076;50.322;18.650;2023-06-14T08:51:04;154041.28;;;11.39
47484;BMP280;54076;50.322;18.650;2023-06-14T08:56:05;153466.13;;;11.11
47484;BMP280;54076;50.322;18.650;2023-06-14T09:01:08;154079.34;;;11.16
47484;BMP280;54076;50.322;18.650;2023-06-14T09:06:12;153845.72;;;11.01
47484;BMP280;54076;50.322;18.650;2023-06-14T09:11:18;153902.70;;;10.99
47484;BMP280;54076;50.322;18.650;2023-06-14T09:16:19;154428.41;;;11.16
47484;BMP280;54076;50.322;18.650;2023-06-14T09:21:21;155016.53;;;11.30
47484;BMP280;54076;50.322;18.650;2023-06-14T09:26:22;155435.67;;;11.41
47484;BMP280;54076;50.322;18.650;2023-06-14T09:31:28;156316.92;;;11.76
47484;BMP280;54076;50.322;18.650;2023-06-14T09:36:32;157765.89;;;12.48
47484;BMP280;54076;50.322;18.650;2023-06-14T09:46:37;159307.00;;;13.30
47484;BMP280;54076;50.322;18.650;2023-06-14T09:51:45;157795.41;;;12.57
47484;BMP280;54076;50.322;18.650;2023-06-14T09:56:51;157911.88;;;12.64
47484;BMP280;54076;50.322;18.650;2023-06-14T10:01:57;158253.78;;;12.77
47484;BMP280;54076;50.322;18.650;2023-06-14T10:06:59;158826.36;;;13.13
47484;BMP280;54076;50.322;18.650;2023-06-14T10:12:02;159109.25;;;13.29
47484;BMP280;54076;50.322;18.650;2023-06-14T10:17:09;158745.64;;;13.10
47484;BMP280;54076;50.322;18.650;2023-06-14T10:22:18;159300.47;;;13.39
47484;BMP280;54076;50.322;18.650;2023-06-14T10:27:20;159315.53;;;13.45
47484;BMP280;54076;50.322;18.650;2023-06-14T10:32:25;159361.91;;;13.49
47484;BMP280;54076;50.322;18.650;2023-06-14T10:37:28;159298.97;;;13.42
47484;BMP280;54076;50.322;18.650;2023-06-14T10:42:33;159496.55;;;13.61
47484;BMP280;54076;50.322;18.650;2023-06-14T10:47:35;158854.81;;;13.44
47484;BMP280;54076;50.322;18.650;2023-06-14T10:52:41;158575.08;;;13.30
47484;BMP280;54076;50.322;18.650;2023-06-14T10:57:47;158725.83;;;13.34
47484;BMP280;54076;50.322;18.650;2023-06-14T11:13:51;155382.38;;;12.03
47484;BMP280;54076;50.322;18.650;2023-06-14T11:18:52;155007.41;;;11.59
47484;BMP280;54076;50.322;18.650;2023-06-14T11:23:53;154553.16;;;11.13
47484;BMP280;54076;50.322;18.650;2023-06-14T11:29:00;155368.59;;;11.45
47484;BMP280;54076;50.322;18.650;2023-06-14T11:34:01;156842.08;;;12.06
47484;BMP280;54076;50.322;18.650;2023-06-14T11:39:05;157443.30;;;12.35
47484;BMP280;54076;50.322;18.650;2023-06-14T11:44:07;158224.23;;;12.76
47484;BMP280;54076;50.322;18.650;2023-06-14T11:49:09;158205.92;;;12.75
47484;BMP280;54076;50.322;18.650;2023-06-14T11:54:10;159167.28;;;13.21
47484;BMP280;54076;50.322;18.650;2023-06-14T11:59:13;159423.86;;;13.48
47484;BMP280;54076;50.322;18.650;2023-06-14T12:04:14;159792.47;;;13.73
47484;BMP280;54076;50.322;18.650;2023-06-14T12:09:15;161117.44;;;14.59
47484;BMP280;54076;50.322;18.650;2023-06-14T12:14:19;161180.91;;;14.71
47484;BMP280;54076;50.322;18.650;2023-06-14T12:19:26;160651.97;;;14.42
47484;BMP280;54076;50.322;18.650;2023-06-14T12:24:31;161757.22;;;15.04
47484;BMP280;54076;50.322;18.650;2023-06-14T12:29:32;162304.38;;;15.38
47484;BMP280;54076;50.322;18.650;2023-06-14T12:34:34;162628.03;;;15.66
47484;BMP280;54076;50.322;18.650;2023-06-14T12:39:35;160683.67;;;14.56
47484;BMP280;54076;50.322;18.650;2023-06-14T12:44:40;160819.66;;;14.60
47484;BMP280;54076;50.322;18.650;2023-06-14T12:49:41;159861.73;;;14.06
47484;BMP280;54076;50.322;18.650;2023-06-14T12:54:42;159113.81;;;13.66
47484;BMP280;54076;50.322;18.650;2023-06-14T12:59:43;159177.28;;;13.77
47484;BMP280;54076;50.322;18.650;2023-06-14T13:04:44;157338.09;;;12.84
47484;BMP280;54076;50.322;18.650;2023-06-14T13:09:45;157026.41;;;12.60
47484;BMP280;54076;50.322;18.650;2023-06-14T13:14:46;156926.88;;;12.49
47484;BMP280;54076;50.322;18.650;2023-06-14T13:19:47;156862.84;;;12.44
47484;BMP280;54076;50.322;18.650;2023-06-14T13:24:48;157016.84;;;12.44
47484;BMP280;54076;50.322;18.650;2023-06-14T13:29:49;157057.13;;;12.42
47484;BMP280;54076;50.322;18.650;2023-06-14T13:34:50;156708.34;;;12.22
47484;BMP280;54076;50.322;18.650;2023-06-14T13:39:51;157174.59;;;12.42
47484;BMP280;54076;50.322;18.650;2023-06-14T13:44:52;157327.36;;;12.48
47484;BMP280;54076;50.322;18.650;2023-06-14T13:49:53;157987.55;;;12.80
47484;BMP280;54076;50.322;18.650;2023-06-14T13:54:55;157809.94;;;12.75
47484;BMP280;54076;50.322;18.650;2023-06-14T13:59:56;158433.02;;;13.07
47484;BMP280;54076;50.322;18.650;2023-06-14T14:05:01;158207.25;;;12.97
47484;BMP280;54076;50.322;18.650;2023-06-14T14:10:03;158456.00;;;13.16
47484;BMP280;54076;50.322;18.650;2023-06-14T14:15:05;158655.30;;;13.30
47484;BMP280;54076;50.322;18.650;2023-06-14T14:20:13;158787.38;;;13.36
47484;BMP280;54076;50.322;18.650;2023-06-14T14:25:16;158093.78;;;13.02
47484;BMP280;54076;50.322;18.650;2023-06-14T14:30:17;158727.20;;;13.36
47484;BMP280;54076;50.322;18.650;2023-06-14T14:35:21;158417.36;;;13.26
47484;BMP280;54076;50.322;18.650;2023-06-14T14:40:24;158902.91;;;13.57
47484;BMP280;54076;50.322;18.650;2023-06-14T14:45:25;159122.13;;;13.66
47484;BMP280;54076;50.322;18.650;2023-06-14T14:50:26;159576.20;;;13.90
47484;BMP280;54076;50.322;18.650;2023-06-14T14:55:27;159800.91;;;14.02
47484;BMP280;54076;50.322;18.650;2023-06-14T15:00:29;160369.64;;;14.34
47484;BMP280;54076;50.322;18.650;2023-06-14T15:05:30;160665.09;;;14.52
47484;BMP280;54076;50.322;18.650;2023-06-14T15:10:31;161254.66;;;14.90
47484;BMP280;54076;50.322;18.650;2023-06-14T15:15:32;161547.63;;;15.08
47484;BMP280;54076;50.322;18.650;2023-06-14T15:20:33;162037.91;;;15.37
47484;BMP280;54076;50.322;18.650;2023-06-14T15:25:35;161698.63;;;15.22
47484;BMP280;54076;50.322;18.650;2023-06-14T15:30:36;160979.67;;;14.83
47484;BMP280;54076;50.322;18.650;2023-06-14T15:35:37;160791.23;;;14.75
47484;BMP280;54076;50.322;18.650;2023-06-14T15:40:38;160189.22;;;14.39
47484;BMP280;54076;50.322;18.650;2023-06-14T15:45:39;160581.77;;;14.60
47484;BMP280;54076;50.322;18.650;2023-06-14T15:50:40;160332.92;;;14.50
47484;BMP280;54076;50.322;18.650;2023-06-14T15:55:41;160143.00;;;14.48
47484;BMP280;54076;50.322;18.650;2023-06-14T16:00:42;159990.28;;;14.34
47484;BMP280;54076;50.322;18.650;2023-06-14T16:05:43;159053.06;;;13.92
47484;BMP280;54076;50.322;18.650;2023-06-14T16:10:44;160354.80;;;14.52
47484;BMP280;54076;50.322;18.650;2023-06-14T16:15:45;159426.38;;;14.02
47484;BMP280;54076;50.322;18.650;2023-06-14T16:20:47;160987.59;;;14.75
47484;BMP280;54076;50.322;18.650;2023-06-14T16:25:48;163806.25;;;16.44
47484;BMP280;54076;50.322;18.650;2023-06-14T16:30:49;165224.09;;;17.30
47484;BMP280;54076;50.322;18.650;2023-06-14T16:35:51;166058.33;;;17.84
47484;BMP280;54076;50.322;18.650;2023-06-14T16:40:52;162880.23;;;16.26
47484;BMP280;54076;50.322;18.650;2023-06-14T16:45:53;161730.97;;;15.30
47484;BMP280;54076;50.322;18.650;2023-06-14T16:50:54;159929.27;;;14.50
47484;BMP280;54076;50.322;18.650;2023-06-14T16:55:55;159136.39;;;14.11
47484;BMP280;54076;50.322;18.650;2023-06-14T17:00:56;158470.88;;;13.63
47484;BMP280;54076;50.322;18.650;2023-06-14T17:05:58;160496.28;;;14.51
47484;BMP280;54076;50.322;18.650;2023-06-14T17:10:59;158510.33;;;13.82
47484;BMP280;54076;50.322;18.650;2023-06-14T17:16:04;157025.16;;;13.13
47484;BMP280;54076;50.322;18.650;2023-06-14T17:21:06;156076.95;;;12.70
47484;BMP280;54076;50.322;18.650;2023-06-14T17:26:07;155661.55;;;12.50
47484;BMP280;54076;50.322;18.650;2023-06-14T17:31:08;155378.50;;;12.36
47484;BMP280;54076;50.322;18.650;2023-06-14T17:36:10;155121.16;;;12.22
47484;BMP280;54076;50.322;18.650;2023-06-14T17:41:11;154923.17;;;12.09
47484;BMP280;54076;50.322;18.650;2023-06-14T17:46:12;154526.30;;;11.85
47484;BMP280;54076;50.322;18.650;2023-06-14T17:51:13;154999.80;;;12.04
47484;BMP280;54076;50.322;18.650;2023-06-14T17:56:16;154381.47;;;11.74
47484;BMP280;54076;50.322;18.650;2023-06-14T18:01:17;154743.64;;;11.92
47484;BMP280;54076;50.322;18.650;2023-06-14T18:06:20;154062.84;;;11.62
47484;BMP280;54076;50.322;18.650;2023-06-14T18:11:21;154643.36;;;11.75
47484;BMP280;54076;50.322;18.650;2023-06-14T18:16:22;154992.36;;;11.71
47484;BMP280;54076;50.322;18.650;2023-06-14T18:21:23;154026.61;;;11.57
47484;BMP280;54076;50.322;18.650;2023-06-14T18:26:25;157402.27;;;12.86
47484;BMP280;54076;50.322;18.650;2023-06-14T18:31:29;154994.47;;;12.23
47484;BMP280;54076;50.322;18.650;2023-06-14T18:36:30;154142.92;;;11.84
47484;BMP280;54076;50.322;18.650;2023-06-14T18:41:32;153488.22;;;11.51
47484;BMP280;54076;50.322;18.650;2023-06-14T18:46:33;152489.75;;;11.11
47484;BMP280;54076;50.322;18.650;2023-06-14T18:51:34;151463.91;;;10.71
47484;BMP280;54076;50.322;18.650;2023-06-14T18:56:39;150890.47;;;10.47
47484;BMP280;54076;50.322;18.650;2023-06-14T19:01:40;150339.22;;;10.24
47484;BMP280;54076;50.322;18.650;2023-06-14T19:06:41;149722.23;;;9.98
47484;BMP280;54076;50.322;18.650;2023-06-14T19:11:43;149705.41;;;9.94
47484;BMP280;54076;50.322;18.650;2023-06-14T19:16:45;149901.84;;;10.00
47484;BMP280;54076;50.322;18.650;2023-06-14T19:21:47;149737.88;;;9.92
47484;BMP280;54076;50.322;18.650;2023-06-14T19:26:48;148980.53;;;9.60
47484;BMP280;54076;50.322;18.650;2023-06-14T19:31:50;148672.13;;;9.47
47484;BMP280;54076;50.322;18.650;2023-06-14T19:36:54;148234.80;;;9.28
47484;BMP280;54076;50.322;18.650;2023-06-14T19:41:55;148297.80;;;9.28
47484;BMP280;54076;50.322;18.650;2023-06-14T19:46:55;148150.91;;;9.19
47484;BMP280;54076;50.322;18.650;2023-06-14T19:51:56;147830.09;;;9.06
47484;BMP280;54076;50.322;18.650;2023-06-14T19:56:57;148010.97;;;9.11
47484;BMP280;54076;50.322;18.650;2023-06-14T20:01:58;147784.42;;;9.01
47484;BMP280;54076;50.322;18.650;2023-06-14T20:06:59;147729.91;;;8.98
47484;BMP280;54076;50.322;18.650;2023-06-14T20:12:01;147699.28;;;8.96
47484;BMP280;54076;50.322;18.650;2023-06-14T20:17:03;147474.16;;;8.87
47484;BMP280;54076;50.322;18.650;2023-06-14T20:22:04;147257.80;;;8.78
47484;BMP280;54076;50.322;18.650;2023-06-14T20:27:06;147267.59;;;8.79
47484;BMP280;54076;50.322;18.650;2023-06-14T20:32:07;146750.55;;;8.60
47484;BMP280;54076;50.322;18.650;2023-06-14T20:37:08;146675.95;;;8.57
47484;BMP280;54076;50.322;18.650;2023-06-14T20:42:09;146644.03;;;8.56
47484;BMP280;54076;50.322;18.650;2023-06-14T20:47:13;146753.25;;;8.59
47484;BMP280;54076;50.322;18.650;2023-06-14T20:52:14;146202.09;;;8.39
47484;BMP280;54076;50.322;18.650;2023-06-14T20:57:15;146294.78;;;8.43
47484;BMP280;54076;50.322;18.650;2023-06-14T21:02:18;145628.42;;;8.19
47484;BMP280;54076;50.322;18.650;2023-06-14T21:07:19;146046.91;;;8.33
47484;BMP280;54076;50.322;18.650;2023-06-14T21:12:20;146097.16;;;8.34
47484;BMP280;54076;50.322;18.650;2023-06-14T21:17:21;145838.45;;;8.25
47484;BMP280;54076;50.322;18.650;2023-06-14T21:22:22;145790.33;;;8.23
47484;BMP280;54076;50.322;18.650;2023-06-14T21:27:23;145263.77;;;8.06
47484;BMP280;54076;50.322;18.650;2023-06-14T21:32:24;145630.55;;;8.18
47484;BMP280;54076;50.322;18.650;2023-06-14T21:37:25;145879.63;;;8.25
47484;BMP280;54076;50.322;18.650;2023-06-14T21:42:26;145783.16;;;8.22
47484;BMP280;54076;50.322;18.650;2023-06-14T21:47:27;145975.67;;;8.28
47484;BMP280;54076;50.322;18.650;2023-06-14T21:52:28;145943.78;;;8.27
47484;BMP280;54076;50.322;18.650;2023-06-14T21:57:29;145973.67;;;8.27
47484;BMP280;54076;50.322;18.650;2023-06-14T22:02:30;145705.41;;;8.19
47484;BMP280;54076;50.322;18.650;2023-06-14T22:07:31;145169.97;;;8.01
47484;BMP280;54076;50.322;18.650;2023-06-14T22:12:33;145048.16;;;7.96
47484;BMP280;54076;50.322;18.650;2023-06-14T22:17:34;145428.09;;;8.09
47484;BMP280;54076;50.322;18.650;2023-06-14T22:22:37;145902.36;;;8.24
47484;BMP280;54076;50.322;18.650;2023-06-14T22:27:41;146240.17;;;8.34
47484;BMP280;54076;50.322;18.650;2023-06-14T22:32:47;145848.09;;;8.20
47484;BMP280;54076;50.322;18.650;2023-06-14T22:37:49;146053.16;;;8.28
47484;BMP280;54076;50.322;18.650;2023-06-14T22:42:50;145440.22;;;8.09
47484;BMP280;54076;50.322;18.650;2023-06-14T22:47:53;145634.66;;;8.14
47484;BMP280;54076;50.322;18.650;2023-06-14T22:52:55;145917.75;;;8.23
47484;BMP280;54076;50.322;18.650;2023-06-14T22:57:56;145912.13;;;8.23
47484;BMP280;54076;50.322;18.650;2023-06-14T23:02:57;145791.97;;;8.18
47484;BMP280;54076;50.322;18.650;2023-06-14T23:07:58;145383.41;;;8.03
47484;BMP280;54076;50.322;18.650;2023-06-14T23:12:59;145715.84;;;8.13
47484;BMP280;54076;50.322;18.650;2023-06-14T23:18:03;145809.47;;;8.17
47484;BMP280;54076;50.322;18.650;2023-06-14T23:23:04;145681.47;;;8.13
47484;BMP280;54076;50.322;18.650;2023-06-14T23:28:05;145402.72;;;8.02
47484;BMP280;54076;50.322;18.650;2023-06-14T23:33:09;145804.67;;;8.15
47484;BMP280;54076;50.322;18.650;2023-06-14T23:38:10;146148.56;;;8.28
47484;BMP280;54076;50.322;18.650;2023-06-14T23:43:12;146250.66;;;8.31
47484;BMP280;54076;50.322;18.650;2023-06-14T23:48:14;146345.41;;;8.34
47484;BMP280;54076;50.322;18.650;2023-06-14T23:53:16;146481.20;;;8.37
47484;BMP280;54076;50.322;18.650;2023-06-14T23:58:21;146640.22;;;8.43
